createdAt,value
2022-12-23T00:00:29.699Z,10.95
2022-12-23T00:01:01.952Z,10.30
2022-12-23T00:01:33.459Z,7.93
2022-12-23T00:02:05.076Z,9.30
2022-12-23T00:02:36.689Z,9.23
2022-12-23T00:03:08.340Z,9.98
2022-12-23T00:03:40.077Z,8.77
2022-12-23T00:04:11.663Z,10.05
2022-12-23T00:04:43.145Z,9.60
2022-12-23T00:05:14.535Z,8.53
2022-12-23T00:05:45.915Z,8.80
2022-12-23T00:06:17.911Z,8.35
2022-12-23T00:06:49.284Z,9.85
2022-12-23T00:07:20.792Z,9.10
2022-12-23T00:07:52.123Z,9.95
2022-12-23T00:08:23.916Z,10.07
2022-12-23T00:08:55.268Z,9.40
2022-12-23T00:09:26.735Z,8.70
2022-12-23T00:09:58.334Z,8.30
2022-12-23T00:10:29.786Z,8.80
2022-12-23T00:11:01.293Z,10.20
2022-12-23T00:11:32.699Z,8.40
2022-12-23T00:12:04.288Z,9.60
2022-12-23T00:12:35.781Z,9.07
2022-12-23T00:13:07.781Z,8.38
2022-12-23T00:13:39.319Z,9.52
2022-12-23T00:14:16.282Z,9.98
2022-12-23T00:14:51.715Z,9.18
2022-12-23T00:15:23.102Z,9.43
2022-12-23T00:16:01.435Z,9.10
2022-12-23T00:16:35.340Z,8.82
2022-12-23T00:17:21.686Z,8.63
2022-12-23T00:17:54.306Z,8.73
2022-12-23T00:18:25.741Z,7.85
2022-12-23T00:18:57.173Z,9.35
2022-12-23T00:19:28.899Z,9.27
2022-12-23T00:20:00.491Z,8.45
2022-12-23T00:20:31.890Z,10.52
2022-12-23T00:21:08.617Z,9.57
2022-12-23T00:21:40.599Z,10.15
2022-12-23T00:22:11.989Z,9.10
2022-12-23T00:22:43.500Z,9.13
2022-12-23T00:23:14.917Z,8.25
2022-12-23T00:23:48.194Z,10.05
2022-12-23T00:24:19.585Z,9.35
2022-12-23T00:24:51.072Z,9.93
2022-12-23T00:25:22.555Z,9.68
2022-12-23T00:25:53.991Z,8.40
2022-12-23T00:26:26.522Z,9.80
2022-12-23T00:26:57.891Z,9.45
2022-12-23T00:27:32.940Z,9.00
2022-12-23T00:28:16.865Z,9.30
2022-12-23T00:28:48.537Z,8.35
2022-12-23T00:29:19.932Z,9.02
2022-12-23T00:29:51.306Z,10.32
2022-12-23T00:30:22.698Z,8.30
2022-12-23T00:30:55.050Z,8.48
2022-12-23T00:31:26.622Z,8.98
2022-12-23T00:31:58.076Z,8.15
2022-12-23T00:32:29.488Z,10.38
2022-12-23T00:33:00.910Z,8.68
2022-12-23T00:33:51.221Z,10.13
2022-12-23T00:34:22.703Z,10.98
2022-12-23T00:34:54.070Z,9.02
2022-12-23T00:35:25.503Z,7.57
2022-12-23T00:35:57.068Z,7.93
2022-12-23T00:36:29.465Z,9.98
2022-12-23T00:37:00.957Z,9.38
2022-12-23T00:37:32.319Z,10.27
2022-12-23T00:38:03.661Z,9.65
2022-12-23T00:38:35.063Z,7.93
2022-12-23T00:39:06.506Z,9.25
2022-12-23T00:39:37.868Z,8.25
2022-12-23T00:40:11.961Z,9.60
2022-12-23T00:40:43.501Z,8.38
2022-12-23T00:41:17.162Z,9.47
2022-12-23T00:41:48.590Z,9.25
2022-12-23T00:42:19.968Z,10.18
2022-12-23T00:42:51.309Z,9.45
2022-12-23T00:43:22.689Z,9.63
2022-12-23T00:43:54.075Z,9.18
2022-12-23T00:44:25.908Z,9.10
2022-12-23T00:44:57.306Z,8.30
2022-12-23T00:45:28.797Z,9.03
2022-12-23T00:46:00.332Z,9.15
2022-12-23T00:46:32.029Z,8.90
2022-12-23T00:47:03.521Z,8.55
2022-12-23T00:47:34.969Z,8.20
2022-12-23T00:48:06.387Z,9.57
2022-12-23T00:48:37.756Z,8.40
2022-12-23T00:49:11.529Z,9.07
2022-12-23T00:49:42.975Z,8.73
2022-12-23T00:50:14.445Z,7.07
2022-12-23T00:50:45.847Z,8.90
2022-12-23T00:51:17.218Z,8.70
2022-12-23T00:51:48.602Z,8.57
2022-12-23T00:52:20.108Z,8.95
2022-12-23T00:52:51.543Z,8.93
2022-12-23T00:53:23.181Z,9.35
2022-12-23T00:53:54.715Z,8.98
2022-12-23T00:54:26.142Z,8.80
2022-12-23T00:54:57.652Z,9.20
2022-12-23T00:55:29.025Z,9.48
2022-12-23T00:56:00.429Z,8.75
2022-12-23T00:56:31.952Z,8.90
2022-12-23T00:57:03.681Z,10.65
2022-12-23T00:57:35.039Z,8.50
2022-12-23T00:58:06.525Z,8.98
2022-12-23T00:58:37.955Z,9.27
2022-12-23T00:59:09.398Z,9.48
2022-12-23T00:59:40.803Z,9.77
2022-12-23T01:00:12.507Z,9.25
2022-12-23T01:00:44.419Z,7.90
2022-12-23T01:01:15.940Z,8.95
2022-12-23T01:01:47.519Z,9.18
2022-12-23T01:02:19.112Z,9.63
2022-12-23T01:02:50.749Z,9.27
2022-12-23T01:03:22.364Z,9.05
2022-12-23T01:03:53.826Z,9.15
2022-12-23T01:04:25.319Z,10.38
2022-12-23T01:04:56.705Z,9.57
2022-12-23T01:05:28.129Z,9.20
2022-12-23T01:06:00.190Z,11.48
2022-12-23T01:06:31.551Z,10.38
2022-12-23T01:07:02.990Z,9.90
2022-12-23T01:07:34.367Z,9.05
2022-12-23T01:08:09.506Z,10.18
2022-12-23T01:08:40.933Z,9.05
2022-12-23T01:09:12.330Z,9.20
2022-12-23T01:09:43.721Z,9.20
2022-12-23T01:10:15.152Z,9.75
2022-12-23T01:10:46.662Z,10.30
2022-12-23T01:11:18.051Z,10.43
2022-12-23T01:11:49.516Z,9.18
2022-12-23T01:12:21.173Z,9.13
2022-12-23T01:12:52.542Z,9.38
2022-12-23T01:13:23.985Z,9.45
2022-12-23T01:13:55.368Z,10.77
2022-12-23T01:14:26.850Z,9.77
2022-12-23T01:14:58.298Z,10.83
2022-12-23T01:15:30.239Z,10.25
2022-12-23T01:16:02.575Z,9.05
2022-12-23T01:16:36.134Z,8.53
2022-12-23T01:17:07.902Z,10.35
2022-12-23T01:17:39.321Z,9.30
2022-12-23T01:18:10.769Z,9.00
2022-12-23T01:18:42.172Z,10.15
2022-12-23T01:19:13.637Z,9.40
2022-12-23T01:19:45.039Z,9.63
2022-12-23T01:20:16.580Z,9.32
2022-12-23T01:20:47.960Z,10.45
2022-12-23T01:21:19.385Z,9.55
2022-12-23T01:21:50.820Z,10.60
2022-12-23T01:22:22.161Z,10.70
2022-12-23T01:22:53.561Z,11.15
2022-12-23T01:23:24.998Z,11.13
2022-12-23T01:23:56.421Z,9.80
2022-12-23T01:24:28.741Z,9.75
2022-12-23T01:25:00.125Z,11.23
2022-12-23T01:25:31.601Z,10.15
2022-12-23T01:26:04.747Z,11.43
2022-12-23T01:26:36.222Z,11.10
2022-12-23T01:27:07.650Z,12.48
2022-12-23T01:27:39.151Z,11.65
2022-12-23T01:28:10.545Z,9.50
2022-12-23T01:28:41.968Z,10.98
2022-12-23T01:29:13.411Z,11.13
2022-12-23T01:29:45.603Z,11.00
2022-12-23T01:30:17.057Z,11.63
2022-12-23T01:30:48.475Z,13.23
2022-12-23T01:31:19.916Z,10.73
2022-12-23T01:31:51.474Z,10.85
2022-12-23T01:32:22.950Z,11.45
2022-12-23T01:32:54.392Z,12.18
2022-12-23T01:33:25.921Z,10.55
2022-12-23T01:33:57.335Z,11.30
2022-12-23T01:34:36.096Z,10.85
2022-12-23T01:35:08.317Z,10.45
2022-12-23T01:35:39.720Z,12.43
2022-12-23T01:36:11.113Z,8.88
2022-12-23T01:36:42.482Z,9.63
2022-12-23T01:37:14.072Z,11.73
2022-12-23T01:37:45.455Z,11.48
2022-12-23T01:38:16.861Z,10.55
2022-12-23T01:38:48.354Z,11.02
2022-12-23T01:39:19.794Z,10.48
2022-12-23T01:39:51.188Z,10.43
2022-12-23T01:40:22.556Z,11.60
2022-12-23T01:40:54.031Z,10.43
2022-12-23T01:41:26.994Z,11.10
2022-12-23T01:41:58.408Z,11.30
2022-12-23T01:42:29.830Z,12.43
2022-12-23T01:43:01.229Z,11.38
2022-12-23T01:43:44.534Z,12.95
2022-12-23T01:44:34.665Z,13.25
2022-12-23T01:45:21.410Z,10.93
2022-12-23T01:45:52.840Z,11.57
2022-12-23T01:46:24.280Z,11.80
2022-12-23T01:46:55.832Z,12.32
2022-12-23T01:47:33.657Z,12.27
2022-12-23T01:48:07.549Z,12.27
2022-12-23T01:48:39.967Z,11.45
2022-12-23T01:49:11.349Z,12.82
2022-12-23T01:49:42.891Z,12.93
2022-12-23T01:50:14.300Z,12.75
2022-12-23T01:50:45.762Z,11.27
2022-12-23T01:51:23.495Z,12.88
2022-12-23T01:51:54.989Z,14.52
2022-12-23T01:52:26.481Z,13.07
2022-12-23T01:53:06.995Z,14.77
2022-12-23T01:53:44.719Z,13.65
2022-12-23T01:54:16.106Z,14.35
2022-12-23T01:54:47.618Z,13.70
2022-12-23T01:55:20.298Z,13.85
2022-12-23T01:55:51.638Z,14.98
2022-12-23T01:56:28.233Z,15.27
2022-12-23T01:56:59.856Z,15.60
2022-12-23T01:57:31.421Z,14.68
2022-12-23T01:58:16.670Z,14.57
2022-12-23T01:58:54.076Z,13.95
2022-12-23T01:59:25.755Z,14.30
2022-12-23T01:59:57.240Z,13.80
2022-12-23T02:00:28.620Z,13.80
2022-12-23T02:01:00.840Z,12.97
2022-12-23T02:01:33.252Z,13.85
2022-12-23T02:02:04.832Z,14.00
2022-12-23T02:02:36.907Z,15.45
2022-12-23T02:03:08.522Z,15.35
2022-12-23T02:03:40.165Z,12.57
2022-12-23T02:04:14.681Z,13.32
2022-12-23T02:04:46.691Z,14.13
2022-12-23T02:05:18.078Z,13.50
2022-12-23T02:05:49.720Z,15.23
2022-12-23T02:06:21.106Z,14.60
2022-12-23T02:06:52.476Z,14.48
2022-12-23T02:07:23.904Z,13.35
2022-12-23T02:07:55.778Z,13.23
2022-12-23T02:08:29.368Z,15.70
2022-12-23T02:09:01.096Z,15.98
2022-12-23T02:09:33.858Z,15.15
2022-12-23T02:10:05.617Z,16.38
2022-12-23T02:10:50.221Z,16.00
2022-12-23T02:11:34.507Z,16.88
2022-12-23T02:12:16.788Z,17.75
2022-12-23T02:12:58.431Z,14.98
2022-12-23T02:13:51.608Z,15.85
2022-12-23T02:14:23.040Z,14.65
2022-12-23T02:15:13.283Z,18.17
2022-12-23T02:16:10.991Z,18.42
2022-12-23T02:16:46.995Z,17.40
2022-12-23T02:17:18.503Z,17.33
2022-12-23T02:17:56.047Z,18.25
2022-12-23T02:18:33.230Z,15.87
2022-12-23T02:19:10.134Z,18.92
2022-12-23T02:20:06.725Z,16.77
2022-12-23T02:20:47.574Z,17.63
2022-12-23T02:21:21.833Z,17.63
2022-12-23T02:22:13.039Z,17.90
2022-12-23T02:22:50.859Z,16.63
2022-12-23T02:23:40.627Z,17.45
2022-12-23T02:24:21.138Z,17.10
2022-12-23T02:25:11.612Z,16.88
2022-12-23T02:25:43.039Z,19.05
2022-12-23T02:26:32.971Z,20.90
2022-12-23T02:27:10.139Z,20.05
2022-12-23T02:27:49.108Z,19.55
2022-12-23T02:28:39.383Z,20.83
2022-12-23T02:29:16.764Z,21.40
2022-12-23T02:29:48.141Z,19.87
2022-12-23T02:30:19.530Z,20.13
2022-12-23T02:31:08.579Z,20.52
2022-12-23T02:31:43.095Z,20.63
2022-12-23T02:32:29.786Z,20.88
2022-12-23T02:33:10.284Z,22.83
2022-12-23T02:33:41.619Z,20.00
2022-12-23T02:34:17.223Z,21.02
2022-12-23T02:34:55.875Z,21.63
2022-12-23T02:35:40.922Z,22.13
2022-12-23T02:36:30.183Z,22.77
2022-12-23T02:37:10.479Z,20.15
2022-12-23T02:37:47.591Z,21.13
2022-12-23T02:38:37.469Z,21.60
2022-12-23T02:39:18.929Z,24.85
2022-12-23T02:40:08.963Z,21.95
2022-12-23T02:40:53.621Z,21.42
2022-12-23T02:41:30.362Z,22.43
2022-12-23T02:42:07.735Z,22.23
2022-12-23T02:42:45.273Z,21.95
2022-12-23T02:43:28.888Z,20.55
2022-12-23T02:44:02.703Z,19.52
2022-12-23T02:44:42.942Z,20.60
2022-12-23T02:45:18.739Z,23.65
2022-12-23T02:46:07.622Z,24.80
2022-12-23T02:46:45.710Z,20.88
2022-12-23T02:47:21.412Z,22.20
2022-12-23T02:47:59.656Z,19.63
2022-12-23T02:48:31.041Z,21.17
2022-12-23T02:49:09.409Z,21.50
2022-12-23T02:49:44.141Z,19.05
2022-12-23T02:50:18.560Z,20.90
2022-12-23T02:50:51.571Z,23.93
2022-12-23T02:51:26.950Z,19.92
2022-12-23T02:52:00.609Z,20.27
2022-12-23T02:52:33.987Z,20.60
2022-12-23T02:53:11.560Z,25.60
2022-12-23T02:53:49.464Z,23.95
2022-12-23T02:54:28.197Z,21.45
2022-12-23T02:55:08.672Z,18.83
2022-12-23T02:55:41.526Z,21.03
2022-12-23T02:56:14.501Z,21.25
2022-12-23T02:56:47.595Z,21.02
2022-12-23T02:57:25.622Z,21.05
2022-12-23T02:57:57.831Z,20.17
2022-12-23T02:58:32.080Z,17.60
2022-12-23T02:59:09.257Z,19.60
2022-12-23T02:59:42.530Z,20.30
2022-12-23T03:00:17.811Z,18.40
2022-12-23T03:00:49.972Z,21.53
2022-12-23T03:01:24.356Z,18.75
2022-12-23T03:01:56.870Z,17.30
2022-12-23T03:02:28.468Z,20.33
2022-12-23T03:03:00.016Z,22.08
2022-12-23T03:03:32.058Z,20.58
2022-12-23T03:04:06.035Z,20.73
2022-12-23T03:04:38.167Z,19.85
2022-12-23T03:05:28.137Z,19.80
2022-12-23T03:05:59.626Z,20.13
2022-12-23T03:06:37.102Z,21.45
2022-12-23T03:07:18.641Z,21.17
2022-12-23T03:07:51.148Z,19.60
2022-12-23T03:08:25.499Z,20.67
2022-12-23T03:08:58.369Z,19.05
2022-12-23T03:09:29.752Z,18.52
2022-12-23T03:10:20.244Z,20.38
2022-12-23T03:10:51.718Z,18.13
2022-12-23T03:11:24.676Z,19.77
2022-12-23T03:12:07.052Z,21.95
2022-12-23T03:12:38.382Z,23.45
2022-12-23T03:13:09.770Z,20.83
2022-12-23T03:13:50.158Z,19.60
2022-12-23T03:14:40.458Z,22.58
2022-12-23T03:15:32.196Z,16.83
2022-12-23T03:16:15.846Z,18.03
2022-12-23T03:16:53.151Z,18.00
2022-12-23T03:17:43.021Z,17.13
2022-12-23T03:18:30.535Z,19.35
2022-12-23T03:19:01.932Z,17.57
2022-12-23T03:19:36.439Z,16.23
2022-12-23T03:20:12.993Z,16.98
2022-12-23T03:20:49.746Z,19.00
2022-12-23T03:21:24.007Z,16.23
2022-12-23T03:21:55.438Z,18.08
2022-12-23T03:22:37.495Z,17.58
2022-12-23T03:23:30.300Z,19.92
2022-12-23T03:24:04.883Z,18.13
2022-12-23T03:24:42.405Z,18.07
2022-12-23T03:25:34.020Z,18.80
2022-12-23T03:26:09.213Z,20.73
2022-12-23T03:26:44.823Z,21.65
2022-12-23T03:27:16.209Z,19.98
2022-12-23T03:28:06.094Z,22.70
2022-12-23T03:28:49.330Z,23.55
2022-12-23T03:29:24.624Z,22.00
2022-12-23T03:30:07.181Z,21.85
2022-12-23T03:30:40.566Z,21.50
2022-12-23T03:31:15.323Z,20.92
2022-12-23T03:31:47.581Z,20.90
2022-12-23T03:32:19.778Z,20.75
2022-12-23T03:33:02.854Z,19.35
2022-12-23T03:33:35.933Z,20.08
2022-12-23T03:34:10.453Z,20.40
2022-12-23T03:34:43.954Z,18.63
2022-12-23T03:35:18.113Z,20.52
2022-12-23T03:35:53.075Z,20.80
2022-12-23T03:36:27.189Z,21.13
2022-12-23T03:37:00.583Z,20.50
2022-12-23T03:37:33.586Z,17.95
2022-12-23T03:38:07.635Z,20.73
2022-12-23T03:38:40.639Z,20.88
2022-12-23T03:39:14.811Z,19.52
2022-12-23T03:39:52.035Z,21.25
2022-12-23T03:40:27.223Z,19.52
2022-12-23T03:41:01.590Z,17.98
2022-12-23T03:41:44.130Z,19.42
2022-12-23T03:42:35.853Z,19.55
2022-12-23T03:43:15.721Z,20.05
2022-12-23T03:43:53.108Z,17.10
2022-12-23T03:44:34.307Z,19.15
2022-12-23T03:45:37.705Z,16.63
2022-12-23T03:46:03.088Z,19.55
2022-12-23T03:46:37.514Z,20.45
2022-12-23T03:47:17.848Z,16.58
2022-12-23T03:47:52.649Z,18.02
2022-12-23T03:48:26.924Z,20.20
2022-12-23T03:49:01.016Z,19.10
2022-12-23T03:49:37.416Z,17.85
2022-12-23T03:50:11.232Z,18.45
2022-12-23T03:50:43.946Z,16.05
2022-12-23T03:51:19.382Z,20.48
2022-12-23T03:51:56.735Z,16.40
2022-12-23T03:52:31.130Z,18.70
2022-12-23T03:53:10.994Z,18.85
2022-12-23T03:53:46.084Z,20.52
2022-12-23T03:54:21.339Z,17.42
2022-12-23T03:54:56.914Z,17.55
2022-12-23T03:55:32.395Z,17.25
2022-12-23T03:56:09.001Z,18.75
2022-12-23T03:56:43.000Z,19.10
2022-12-23T03:57:15.070Z,15.77
2022-12-23T03:57:58.330Z,18.55
2022-12-23T03:58:50.946Z,16.35
2022-12-23T03:59:29.913Z,21.00
2022-12-23T04:00:01.365Z,18.67
2022-12-23T04:00:35.491Z,17.35
2022-12-23T04:01:36.351Z,18.15
2022-12-23T04:02:13.240Z,18.85
2022-12-23T04:02:47.783Z,19.83
2022-12-23T04:03:22.590Z,17.23
2022-12-23T04:04:14.945Z,19.52
2022-12-23T04:05:05.942Z,16.08
2022-12-23T04:05:39.527Z,20.40
2022-12-23T04:06:16.250Z,17.48
2022-12-23T04:06:59.297Z,18.17
2022-12-23T04:07:36.252Z,19.63
2022-12-23T04:08:16.360Z,20.27
2022-12-23T04:08:48.975Z,17.70
2022-12-23T04:09:22.349Z,18.15
2022-12-23T04:09:54.352Z,20.15
2022-12-23T04:10:28.628Z,18.73
2022-12-23T04:11:00.939Z,19.25
2022-12-23T04:11:33.277Z,20.13
2022-12-23T04:12:04.919Z,18.17
2022-12-23T04:12:36.778Z,17.88
2022-12-23T04:13:08.358Z,18.75
2022-12-23T04:13:39.909Z,28.85
2022-12-23T04:14:16.294Z,18.05
2022-12-23T04:14:48.360Z,20.55
2022-12-23T04:15:23.948Z,24.48
2022-12-23T04:15:57.215Z,18.85
2022-12-23T04:16:29.367Z,16.80
2022-12-23T04:17:01.122Z,21.75
2022-12-23T04:17:32.551Z,22.50
2022-12-23T04:18:03.987Z,19.90
2022-12-23T04:18:35.511Z,20.17
2022-12-23T04:19:06.910Z,18.48
2022-12-23T04:19:38.307Z,17.77
2022-12-23T04:20:10.616Z,25.10
2022-12-23T04:20:42.057Z,17.98
2022-12-23T04:21:13.458Z,16.75
2022-12-23T04:21:44.989Z,23.45
2022-12-23T04:22:16.668Z,18.20
2022-12-23T04:22:48.378Z,18.77
2022-12-23T04:23:19.856Z,18.67
2022-12-23T04:23:51.239Z,20.92
2022-12-23T04:24:22.692Z,21.45
2022-12-23T04:24:54.120Z,18.92
2022-12-23T04:25:25.546Z,17.73
2022-12-23T04:25:56.935Z,20.60
2022-12-23T04:26:28.386Z,17.67
2022-12-23T04:26:59.774Z,17.85
2022-12-23T04:27:31.140Z,18.35
2022-12-23T04:28:02.523Z,17.85
2022-12-23T04:28:33.964Z,19.92
2022-12-23T04:29:05.360Z,18.45
2022-12-23T04:29:36.718Z,20.85
2022-12-23T04:30:09.252Z,19.52
2022-12-23T04:30:40.657Z,20.63
2022-12-23T04:31:12.088Z,18.50
2022-12-23T04:31:43.542Z,17.25
2022-12-23T04:32:14.947Z,20.88
2022-12-23T04:32:46.339Z,18.92
2022-12-23T04:33:17.712Z,22.25
2022-12-23T04:33:49.109Z,20.00
2022-12-23T04:34:20.494Z,17.90
2022-12-23T04:34:51.876Z,24.55
2022-12-23T04:35:23.677Z,20.92
2022-12-23T04:35:55.110Z,21.23
2022-12-23T04:36:26.502Z,21.95
2022-12-23T04:36:57.952Z,23.88
2022-12-23T04:37:29.366Z,23.42
2022-12-23T04:38:00.815Z,20.17
2022-12-23T04:38:32.244Z,19.27
2022-12-23T04:39:03.836Z,22.75
2022-12-23T04:39:35.240Z,23.75
2022-12-23T04:40:06.915Z,30.45
2022-12-23T04:40:38.311Z,18.40
2022-12-23T04:41:09.747Z,18.77
2022-12-23T04:41:41.209Z,23.45
2022-12-23T04:42:12.618Z,17.23
2022-12-23T04:42:44.052Z,19.83
2022-12-23T04:43:15.494Z,22.60
2022-12-23T04:43:52.734Z,19.80
2022-12-23T04:44:24.561Z,22.98
2022-12-23T04:44:55.995Z,20.20
2022-12-23T04:45:27.334Z,20.13
2022-12-23T04:45:58.716Z,21.02
2022-12-23T04:46:30.137Z,18.63
2022-12-23T04:47:01.704Z,21.88
2022-12-23T04:47:33.186Z,19.38
2022-12-23T04:48:04.727Z,19.10
2022-12-23T04:48:36.070Z,19.83
2022-12-23T04:49:07.538Z,22.58
2022-12-23T04:49:38.883Z,18.85
2022-12-23T04:50:13.201Z,24.33
2022-12-23T04:50:44.829Z,23.80
2022-12-23T04:51:16.204Z,22.10
2022-12-23T04:51:47.603Z,18.75
2022-12-23T04:52:19.043Z,16.90
2022-12-23T04:52:50.438Z,16.65
2022-12-23T04:53:21.827Z,17.88
2022-12-23T04:53:53.200Z,20.90
2022-12-23T04:54:24.681Z,17.77
2022-12-23T04:54:56.126Z,23.45
2022-12-23T04:55:27.566Z,18.70
2022-12-23T04:55:58.945Z,18.13
2022-12-23T04:56:30.395Z,18.17
2022-12-23T04:57:01.815Z,17.58
2022-12-23T04:57:33.168Z,17.17
2022-12-23T04:58:05.756Z,18.88
2022-12-23T04:58:37.277Z,19.10
2022-12-23T04:59:10.033Z,19.85
2022-12-23T04:59:41.463Z,18.23
2022-12-23T05:00:13.250Z,17.88
2022-12-23T05:00:44.628Z,19.33
2022-12-23T05:01:16.079Z,18.33
2022-12-23T05:01:47.696Z,19.10
2022-12-23T05:02:19.312Z,18.42
2022-12-23T05:02:51.075Z,17.35
2022-12-23T05:03:22.544Z,16.35
2022-12-23T05:03:53.984Z,18.93
2022-12-23T05:04:25.479Z,17.67
2022-12-23T05:04:56.870Z,17.77
2022-12-23T05:05:28.434Z,18.65
2022-12-23T05:05:59.980Z,16.63
2022-12-23T05:06:31.498Z,18.20
2022-12-23T05:07:03.012Z,16.50
2022-12-23T05:07:34.513Z,18.77
2022-12-23T05:08:06.167Z,19.33
2022-12-23T05:08:37.640Z,20.05
2022-12-23T05:09:09.154Z,17.92
2022-12-23T05:09:40.614Z,16.95
2022-12-23T05:10:12.059Z,18.88
2022-12-23T05:10:44.936Z,19.90
2022-12-23T05:11:16.361Z,18.70
2022-12-23T05:11:47.743Z,18.83
2022-12-23T05:12:21.592Z,18.77
2022-12-23T05:12:53.042Z,20.65
2022-12-23T05:13:24.783Z,19.20
2022-12-23T05:13:56.139Z,18.55
2022-12-23T05:14:27.845Z,20.33
2022-12-23T05:14:59.371Z,18.20
2022-12-23T05:15:30.950Z,18.67
2022-12-23T05:16:02.413Z,18.85
2022-12-23T05:16:33.911Z,18.13
2022-12-23T05:17:07.952Z,17.35
2022-12-23T05:17:39.731Z,18.05
2022-12-23T05:18:11.638Z,18.77
2022-12-23T05:18:43.094Z,18.63
2022-12-23T05:19:14.485Z,20.33
2022-12-23T05:19:45.919Z,17.00
2022-12-23T05:20:17.360Z,17.02
2022-12-23T05:20:49.325Z,19.38
2022-12-23T05:21:20.789Z,18.75
2022-12-23T05:21:52.203Z,15.77
2022-12-23T05:22:29.425Z,15.75
2022-12-23T05:23:00.880Z,16.08
2022-12-23T05:23:32.339Z,16.88
2022-12-23T05:24:03.855Z,23.58
2022-12-23T05:24:35.252Z,21.35
2022-12-23T05:25:07.039Z,17.15
2022-12-23T05:25:38.754Z,18.10
2022-12-23T05:26:10.635Z,16.63
2022-12-23T05:26:47.598Z,19.63
2022-12-23T05:27:19.401Z,16.90
2022-12-23T05:27:50.951Z,17.88
2022-12-23T05:28:22.770Z,18.45
2022-12-23T05:28:54.844Z,17.35
2022-12-23T05:29:26.384Z,16.90
2022-12-23T05:29:57.845Z,16.70
2022-12-23T05:30:29.387Z,17.92
2022-12-23T05:31:05.277Z,21.05
2022-12-23T05:31:36.898Z,17.50
2022-12-23T05:32:08.565Z,15.55
2022-12-23T05:32:40.004Z,16.17
2022-12-23T05:33:11.468Z,18.05
2022-12-23T05:33:43.119Z,17.17
2022-12-23T05:34:14.591Z,18.10
2022-12-23T05:34:45.980Z,19.23
2022-12-23T05:35:17.468Z,17.63
2022-12-23T05:35:48.969Z,16.55
2022-12-23T05:36:20.439Z,17.90
2022-12-23T05:36:52.076Z,16.73
2022-12-23T05:37:23.521Z,17.98
2022-12-23T05:37:54.910Z,20.10
2022-12-23T05:38:26.607Z,21.33
2022-12-23T05:38:57.974Z,20.00
2022-12-23T05:39:29.525Z,21.55
2022-12-23T05:40:00.962Z,21.63
2022-12-23T05:40:33.430Z,21.42
2022-12-23T05:41:05.932Z,20.55
2022-12-23T05:41:37.398Z,19.95
2022-12-23T05:42:08.807Z,18.70
2022-12-23T05:42:40.235Z,17.48
2022-12-23T05:43:11.680Z,17.35
2022-12-23T05:43:43.289Z,17.07
2022-12-23T05:44:14.754Z,18.95
2022-12-23T05:44:46.214Z,19.05
2022-12-23T05:45:17.729Z,18.52
2022-12-23T05:45:49.722Z,20.77
2022-12-23T05:46:26.214Z,18.50
2022-12-23T05:46:58.345Z,19.70
2022-12-23T05:47:29.781Z,21.33
2022-12-23T05:48:01.251Z,19.10
2022-12-23T05:48:32.865Z,20.52
2022-12-23T05:49:04.398Z,16.20
2022-12-23T05:49:35.995Z,20.38
2022-12-23T05:50:07.755Z,18.80
2022-12-23T05:50:39.423Z,19.25
2022-12-23T05:51:12.198Z,17.98
2022-12-23T05:51:43.661Z,20.55
2022-12-23T05:52:15.226Z,17.15
2022-12-23T05:52:46.611Z,18.50
2022-12-23T05:53:18.467Z,18.15
2022-12-23T05:53:49.977Z,18.95
2022-12-23T05:54:21.465Z,17.73
2022-12-23T05:54:52.878Z,19.40
2022-12-23T05:55:24.971Z,16.13
2022-12-23T05:55:56.371Z,19.08
2022-12-23T05:56:27.869Z,16.42
2022-12-23T05:56:59.234Z,19.92
2022-12-23T05:57:30.633Z,20.73
2022-12-23T05:58:02.030Z,17.73
2022-12-23T05:58:33.414Z,17.80
2022-12-23T05:59:04.843Z,16.08
2022-12-23T05:59:36.281Z,16.20
2022-12-23T06:00:08.015Z,16.35
2022-12-23T06:00:39.400Z,15.30
2022-12-23T06:01:10.845Z,16.08
2022-12-23T06:01:42.303Z,17.42
2022-12-23T06:02:14.054Z,19.60
2022-12-23T06:02:51.757Z,17.20
2022-12-23T06:03:25.324Z,17.00
2022-12-23T06:03:57.019Z,16.88
2022-12-23T06:04:28.635Z,17.77
2022-12-23T06:05:00.085Z,18.10
2022-12-23T06:05:31.599Z,20.85
2022-12-23T06:06:02.985Z,18.58
2022-12-23T06:06:34.379Z,20.00
2022-12-23T06:07:05.821Z,18.70
2022-12-23T06:07:37.967Z,19.88
2022-12-23T06:08:09.629Z,20.95
2022-12-23T06:08:41.014Z,19.60
2022-12-23T06:09:12.457Z,17.27
2022-12-23T06:09:43.874Z,20.10
2022-12-23T06:10:15.322Z,17.67
2022-12-23T06:10:46.897Z,18.33
2022-12-23T06:11:18.286Z,19.83
2022-12-23T06:11:49.771Z,19.70
2022-12-23T06:12:21.159Z,20.13
2022-12-23T06:12:52.552Z,20.60
2022-12-23T06:13:23.977Z,16.45
2022-12-23T06:13:55.483Z,18.30
2022-12-23T06:14:29.019Z,18.65
2022-12-23T06:15:01.179Z,19.00
2022-12-23T06:15:32.582Z,18.08
2022-12-23T06:16:04.263Z,18.08
2022-12-23T06:16:35.749Z,17.33
2022-12-23T06:17:07.276Z,17.60
2022-12-23T06:17:38.708Z,19.23
2022-12-23T06:18:10.157Z,18.27
2022-12-23T06:18:41.516Z,17.48
2022-12-23T06:19:12.939Z,16.33
2022-12-23T06:19:44.345Z,18.45
2022-12-23T06:20:20.208Z,16.30
2022-12-23T06:20:52.505Z,16.90
2022-12-23T06:21:23.895Z,15.52
2022-12-23T06:21:55.358Z,16.48
2022-12-23T06:22:26.824Z,15.33
2022-12-23T06:22:58.220Z,16.42
2022-12-23T06:23:29.763Z,17.20
2022-12-23T06:24:01.122Z,17.95
2022-12-23T06:24:32.469Z,15.80
2022-12-23T06:25:03.958Z,16.88
2022-12-23T06:25:35.386Z,16.48
2022-12-23T06:26:06.839Z,15.98
2022-12-23T06:26:38.283Z,16.60
2022-12-23T06:27:09.802Z,16.10
2022-12-23T06:27:41.242Z,15.23
2022-12-23T06:28:12.677Z,15.25
2022-12-23T06:28:44.041Z,16.17
2022-12-23T06:29:15.398Z,14.20
2022-12-23T06:29:46.829Z,18.33
2022-12-23T06:30:18.221Z,15.57
2022-12-23T06:30:52.833Z,15.30
2022-12-23T06:31:24.289Z,17.98
2022-12-23T06:31:55.772Z,16.90
2022-12-23T06:32:28.661Z,16.08
2022-12-23T06:33:01.809Z,18.33
2022-12-23T06:33:33.304Z,18.45
2022-12-23T06:34:04.685Z,16.20
2022-12-23T06:34:36.123Z,18.57
2022-12-23T06:35:08.225Z,18.88
2022-12-23T06:35:39.658Z,20.08
2022-12-23T06:36:11.158Z,18.73
2022-12-23T06:36:42.544Z,19.85
2022-12-23T06:37:13.916Z,17.73
2022-12-23T06:37:45.340Z,18.92
2022-12-23T06:38:16.770Z,19.17
2022-12-23T06:38:48.139Z,19.17
2022-12-23T06:39:19.504Z,18.77
2022-12-23T06:39:50.905Z,17.52
2022-12-23T06:40:22.303Z,19.60
2022-12-23T06:40:53.678Z,19.45
2022-12-23T06:41:25.370Z,21.25
2022-12-23T06:41:56.755Z,20.88
2022-12-23T06:42:28.153Z,19.65
2022-12-23T06:42:59.786Z,18.50
2022-12-23T06:43:31.228Z,17.30
2022-12-23T06:44:02.841Z,19.25
2022-12-23T06:44:34.318Z,17.20
2022-12-23T06:45:06.006Z,18.85
2022-12-23T06:45:37.675Z,17.55
2022-12-23T06:46:09.088Z,21.65
2022-12-23T06:46:40.679Z,19.17
2022-12-23T06:47:12.221Z,18.83
2022-12-23T06:47:43.803Z,19.80
2022-12-23T06:48:15.385Z,21.30
2022-12-23T06:48:46.783Z,19.10
2022-12-23T06:49:20.594Z,20.15
2022-12-23T06:49:51.994Z,19.20
2022-12-23T06:50:23.605Z,19.55
2022-12-23T06:50:54.982Z,17.23
2022-12-23T06:51:26.360Z,19.10
2022-12-23T06:51:57.866Z,18.65
2022-12-23T06:52:29.350Z,18.45
2022-12-23T06:53:00.742Z,15.82
2022-12-23T06:53:35.249Z,18.03
2022-12-23T06:54:06.623Z,17.40
2022-12-23T06:54:38.081Z,15.88
2022-12-23T06:55:09.831Z,15.10
2022-12-23T06:55:41.235Z,17.30
2022-12-23T06:56:12.676Z,19.30
2022-12-23T06:56:44.147Z,17.02
2022-12-23T06:57:15.549Z,16.90
2022-12-23T06:57:50.792Z,16.13
2022-12-23T06:58:22.428Z,13.30
2022-12-23T06:58:53.991Z,15.77
2022-12-23T06:59:25.406Z,15.48
2022-12-23T06:59:56.836Z,16.57
2022-12-23T07:00:28.440Z,15.07
2022-12-23T07:00:59.862Z,16.60
2022-12-23T07:01:31.583Z,13.88
2022-12-23T07:02:03.265Z,13.57
2022-12-23T07:02:37.172Z,13.33
2022-12-23T07:03:11.358Z,15.40
2022-12-23T07:03:42.890Z,13.75
2022-12-23T07:04:14.270Z,12.55
2022-12-23T07:04:48.100Z,13.88
2022-12-23T07:05:19.417Z,13.40
2022-12-23T07:05:51.281Z,11.57
2022-12-23T07:06:25.708Z,13.60
2022-12-23T07:06:57.082Z,13.82
2022-12-23T07:07:28.632Z,12.85
2022-12-23T07:08:00.089Z,13.68
2022-12-23T07:08:31.459Z,12.88
2022-12-23T07:09:02.966Z,12.02
2022-12-23T07:09:36.733Z,14.70
2022-12-23T07:10:11.160Z,15.30
2022-12-23T07:10:42.578Z,13.07
2022-12-23T07:11:14.038Z,12.48
2022-12-23T07:11:45.870Z,12.55
2022-12-23T07:12:17.246Z,15.13
2022-12-23T07:12:50.868Z,15.70
2022-12-23T07:13:22.530Z,13.70
2022-12-23T07:13:53.922Z,13.20
2022-12-23T07:14:25.353Z,12.35
2022-12-23T07:14:56.751Z,12.20